Latest Weather Observations for Edinburgh

IDS60801

Issued at 7:31 am CST Friday 30 September 2016 (issued every 30 minutes, with the page automatically refreshed every 10 minutes)

About weather observations | Map of weather stations | Latest weather observations for SA | Other Formats
Station Details ID: 023083 Name: EDINBURGH RAAF Lat: -34.71 Lon: 138.62 Height: 16.54 m
Data from the previous 72 hours. | See also: Recent months at Edinburgh
Date/Time
CST
Temp
°C
App
Temp
°C
Dew
Point
°C
Rel
Hum
%
Delta-T
°C
Wind Press
QNH
hPa
Press
MSL
hPa
Rain since
9am
mm
Dir  Spd
km/h
Gust
km/h
Spd
kts
Gust
kts
30/07:30am 12.1 7.0 9.3 83 1.4 WSW 26 35 14 19 1001.9 1001.9 16.0
30/07:00am 12.1 5.9 9.3 83 1.4 WSW 32 44 17 24 1001.4 1001.4 16.0
30/06:30am 11.8 7.0 8.8 82 1.5 WSW 24 32 13 17 1001.1 1001.1 16.0
30/06:00am 11.5 6.7 8.7 83 1.4 WSW 24 30 13 16 1000.4 1000.4 16.0
30/05:30am 11.3 6.0 8.5 83 1.4 SW 26 35 14 19 1000.2 1000.2 16.0
30/05:00am 11.1 5.8 8.5 84 1.3 SW 26 32 14 17 999.7 999.7 16.0
30/04:30am 11.4 5.5 9.0 85 1.2 SW 30 41 16 22 999.2 999.2 16.0
30/04:00am 10.7 6.3 8.8 88 0.9 SW 22 32 12 17 998.8 998.8 16.0
30/03:51am 10.5 5.6 8.4 87 1.0 WSW 24 32 13 17 998.5 998.5 16.0
30/03:36am 10.5 4.8 8.3 86 1.1 WSW 28 46 15 25 998.2 998.2 16.0
30/03:34am 10.4 5.4 8.0 85 1.2 SW 24 44 13 24 998.2 998.2 15.8
30/03:30am 10.9 6.8 8.8 87 1.0 SW 20 28 11 15 998.3 998.3 14.8
30/03:00am 10.6 5.3 8.5 87 1.0 WSW 26 32 14 17 998.0 998.0 14.8
30/02:30am 10.0 6.3 7.9 87 1.0 SW 17 20 9 11 997.7 997.7 14.8
30/02:00am 9.8 4.9 7.1 83 1.3 SW 22 33 12 18 997.2 997.2 14.8
30/01:30am 10.2 4.8 8.0 86 1.1 SW 26 35 14 19 996.8 996.8 14.8
30/01:00am 10.6 4.0 8.4 86 1.1 SW 33 43 18 23 996.1 996.1 14.8
30/12:36am 10.9 1.3 8.0 82 1.4 SW 48 67 26 36 995.0 995.0 14.8
30/12:34am 10.9 1.3 8.0 82 1.4 SW 48 67 26 36 994.9 994.9 14.8
30/12:30am 10.9 1.0 8.3 84 1.3 WSW 50 61 27 33 994.7 994.7 14.8
30/12:26am 11.2 1.5 9.1 87 1.0 WSW 50 61 27 33 994.6 994.6 14.8
30/12:08am 10.9 0.1 9.3 90 0.8 W 56 74 30 40 994.3 994.3 14.6
30/12:07am 10.9 0.1 9.3 90 0.8 W 56 72 30 39 994.3 994.3 14.6
30/12:03am 10.9 0.5 9.3 90 0.8 W 54 72 29 39 994.2 994.2 14.6
30/12:00am 10.8 0.4 9.2 90 0.8 W 54 69 29 37 994.4 994.4 14.6
 
Date/Time
CST
Temp
°C
App
Temp
°C
Dew
Point
°C
Rel
Hum
%
Delta-T
°C
Wind Press
QNH
hPa
Press
MSL
hPa
Rain since
9am
mm
Dir  Spd
km/h
Gust
km/h
Spd
kts
Gust
kts
29/11:51pm 10.7 -0.3 9.1 90 0.8 W 57 76 31 41 994.4 994.4 14.6
29/11:45pm 10.8 -0.2 9.2 90 0.8 W 57 76 31 41 994.4 994.4 14.6
29/11:30pm 10.6 -0.5 8.9 89 0.8 W 57 74 31 40 994.3 994.3 14.6
29/11:27pm 10.6 -0.3 8.9 89 0.8 W 56 74 30 40 994.3 994.3 14.6
29/11:00pm 10.7 0.6 9.0 89 0.8 W 52 70 28 38 994.5 994.5 14.2
29/10:45pm 10.7 0.6 9.0 89 0.8 W 52 80 28 43 994.7 994.7 13.8
29/10:30pm 10.7 0.2 9.0 89 0.9 W 54 69 29 37 994.8 994.8 13.6
29/10:12pm 10.7 0.6 9.0 89 0.8 W 52 72 28 39 995.0 995.0 13.0
29/10:00pm 10.7 0.6 9.1 90 0.8 W 52 78 28 42 994.9 994.9 12.8
29/09:59pm 10.7 1.0 9.1 90 0.8 W 50 65 27 35 995.0 995.0 12.8
29/09:48pm 10.7 1.0 9.1 90 0.8 W 50 65 27 35 994.9 994.9 12.4
29/09:30pm 10.7 0.3 9.1 90 0.8 W 54 78 29 42 994.8 994.8 12.2
29/09:00pm 10.7 -0.1 9.1 90 0.8 W 56 74 30 40 994.7 994.7 11.0
29/08:54pm 10.8 0.7 9.1 89 0.8 W 52 74 28 40 994.6 994.6 10.8
29/08:48pm 11.0 0.9 9.1 88 0.9 W 52 70 28 38 994.7 994.7 10.6
29/08:41pm 11.0 0.9 9.1 88 0.9 W 52 70 28 38 994.5 994.5 10.6
29/08:30pm 10.7 1.1 9.3 91 0.7 W 50 63 27 34 994.6 994.6 10.4
29/08:27pm 10.8 1.1 9.2 90 0.8 W 50 65 27 35 994.5 994.5 10.0
29/08:23pm 11.0 1.0 9.4 90 0.8 W 52 70 28 38 994.5 994.5 9.8
29/08:19pm 10.9 0.1 9.2 89 0.8 W 56 70 30 38 994.4 994.4 9.8
29/08:03pm 10.9 0.5 9.3 90 0.8 W 54 70 29 38 994.2 994.2 9.6
29/08:00pm 11.0 0.3 9.4 90 0.8 W 56 74 30 40 994.1 994.1 9.4
29/07:58pm 11.0 0.3 9.4 90 0.8 W 56 74 30 40 994.2 994.2 9.4
29/07:30pm 11.2 0.5 9.5 89 0.9 W 56 78 30 42 993.6 993.6 8.6
29/07:00pm 11.2 0.2 9.3 88 1.0 WSW 57 80 31 43 992.9 992.9 8.0
29/06:41pm 11.3 1.0 9.6 89 0.9 WSW 54 72 29 39 992.4 992.4 7.8
29/06:39pm 11.2 0.8 9.3 88 1.0 WSW 54 70 29 38 992.3 992.3 7.6
29/06:30pm 11.4 0.7 9.7 89 0.9 WSW 56 70 30 38 992.1 992.1 7.4
29/06:23pm 11.5 0.8 9.6 88 1.0 WSW 56 70 30 38 992.0 992.0 7.4
29/06:13pm 11.6 0.6 9.3 86 1.2 WSW 57 80 31 43 991.8 991.8 7.4
29/06:00pm 11.6 0.6 9.3 86 1.2 WSW 57 80 31 43 991.4 991.4 7.2
29/05:59pm 11.6 0.6 9.3 86 1.2 WSW 57 80 31 43 991.3 991.3 7.2
29/05:30pm 12.0 1.3 9.6 85 1.2 WSW 56 78 30 42 990.6 990.6 7.0
29/05:00pm 12.0 1.2 9.9 87 1.1 WSW 57 82 31 44 989.9 989.9 6.8
29/04:48pm 12.1 0.5 9.8 86 1.2 WSW 61 80 33 43 989.3 989.3 6.8
29/04:38pm 12.2 1.4 10.1 87 1.1 WSW 57 80 31 43 989.1 989.1 6.6
29/04:35pm 12.1 1.5 10.0 87 1.1 WSW 56 80 30 43 988.8 988.8 6.6
29/04:30pm 11.8 2.4 10.2 90 0.8 WSW 50 72 27 39 989.0 989.0 6.6
29/04:19pm 12.2 1.5 10.4 89 0.9 WSW 57 76 31 41 988.5 988.5 5.8
29/04:00pm 12.6 1.3 10.7 88 1.0 WSW 61 82 33 44 987.9 987.9 5.8
29/03:48pm 12.7 0.9 10.6 87 1.1 WSW 63 83 34 45 987.4 987.4 5.8
29/03:33pm 12.6 1.6 10.5 87 1.1 WSW 59 80 32 43 986.8 986.8 5.8
29/03:31pm 12.6 1.2 10.5 87 1.1 WSW 61 87 33 47 986.9 986.9 5.8
29/03:30pm 12.6 1.2 10.5 87 1.1 WSW 61 87 33 47 986.8 986.8 5.8
29/03:10pm 12.4 3.2 10.8 90 0.8 W 50 70 27 38 986.2 986.2 5.4
29/03:00pm 12.3 3.1 11.0 92 0.7 W 50 65 27 35 986.4 986.4 5.0
29/02:40pm 11.8 3.3 10.5 92 0.7 W 46 65 25 35 986.6 986.6 4.6
29/02:34pm 11.7 4.8 10.4 92 0.7 WSW 37 65 20 35 986.7 986.7 4.2
29/02:30pm 11.1 5.8 9.9 92 0.6 WSW 28 46 15 25 986.8 986.8 4.0
29/02:16pm 10.8 5.3 9.2 90 0.8 WSW 28 43 15 23 987.0 987.0 3.2
29/02:11pm 10.9 3.7 9.2 89 0.8 W 37 56 20 30 987.1 987.1 2.2
29/02:06pm 11.3 2.8 9.4 88 1.0 W 44 59 24 32 987.1 987.1 1.6
29/02:00pm 12.0 3.7 10.1 88 1.0 W 44 59 24 32 986.9 986.9 1.2
29/01:30pm 14.1 6.9 10.5 79 1.9 W 39 50 21 27 986.6 986.6 1.0
29/01:00pm 13.9 6.3 8.9 72 2.5 W 39 52 21 28 986.6 986.6 1.0
29/12:30pm 14.9 7.8 9.5 70 2.8 W 37 50 20 27 986.8 986.8 1.0
29/12:00pm 14.6 6.1 8.5 67 3.1 W 43 57 23 31 986.8 986.8 1.0
29/11:30am 14.4 5.7 7.9 65 3.3 WSW 43 59 23 32 986.5 986.5 1.0
29/11:27am 14.8 7.1 10.0 73 2.5 WSW 41 59 22 32 986.6 986.6 1.0
29/11:00am 12.4 3.1 7.7 73 2.3 WSW 46 63 25 34 986.2 986.2 0.6
29/10:30am 13.9 2.8 7.9 67 3.0 WSW 56 76 30 41 985.2 985.2 0.6
29/10:00am 13.1 1.6 8.6 74 2.2 WSW 59 80 32 43 984.5 984.5 0.6
29/09:33am 11.4 0.2 8.4 82 1.5 WSW 57 78 31 42 983.4 983.4 0.6
29/09:30am 11.3 0.3 8.5 83 1.4 WSW 56 72 30 39 983.5 983.5 0.4
29/09:00am 11.8 1.9 8.3 79 1.7 WSW 50 69 27 37 982.7 982.7 26.2
29/08:30am 10.8 1.0 8.6 86 1.1 W 50 69 27 37 981.6 981.6 26.2
29/08:03am 11.1 2.0 8.5 84 1.3 W 46 65 25 35 980.5 980.5 25.8
29/08:00am 11.1 1.6 8.5 84 1.3 W 48 65 26 35 980.4 980.4 25.8
29/07:39am 10.8 2.3 8.6 86 1.1 WNW 43 63 23 34 979.7 979.7 25.8
29/07:30am 10.7 3.0 8.5 86 1.1 WNW 39 54 21 29 979.6 979.6 25.8
29/07:16am 9.8 2.8 8.4 91 0.7 NW 35 46 19 25 979.7 979.7 25.8
29/07:00am 9.0 -0.3 7.6 91 0.7 NW 46 67 25 36 979.8 979.8 25.6
29/06:57am 9.1 -0.2 7.7 91 0.7 NNW 46 67 25 36 979.7 979.7 25.4
29/06:53am 9.0 -0.2 7.8 92 0.6 NNW 46 67 25 36 979.7 979.7 25.4
29/06:39am 8.2 -1.6 7.0 92 0.6 N 48 74 26 40 979.7 979.7 25.0
29/06:30am 8.1 -2.2 6.7 91 0.7 N 50 67 27 36 979.8 979.8 24.4
29/06:16am 7.9 -0.7 6.5 91 0.6 NNW 41 59 22 32 980.6 980.6 23.6
29/06:15am 7.9 -1.1 6.5 91 0.6 N 43 59 23 32 980.7 980.7 23.6
29/06:02am 7.7 -3.1 6.2 90 0.7 N 52 74 28 40 981.2 981.2 23.2
29/06:00am 7.8 -3.4 6.1 89 0.8 N 54 74 29 40 981.3 981.3 23.2
29/05:30am 8.0 -2.4 6.0 87 0.9 N 50 70 27 38 982.1 982.1 22.2
29/05:14am 8.0 -1.3 5.8 86 1.0 N 44 65 24 35 982.8 982.8 22.2
29/05:00am 8.0 -1.4 5.6 85 1.1 N 44 59 24 32 983.2 983.2 22.0
29/04:30am 8.1 -1.6 5.6 84 1.1 N 46 65 25 35 984.3 984.3 21.8
29/04:07am 7.9 -0.5 5.7 86 1.0 N 39 57 21 31 985.2 985.2 21.8
29/04:00am 8.0 -1.2 5.5 84 1.1 N 43 57 23 31 985.4 985.4 21.8
29/03:30am 8.1 -1.1 5.4 83 1.2 N 43 59 23 32 986.2 986.2 21.8
29/03:06am 8.2 -0.2 5.5 83 1.2 N 39 57 21 31 986.5 986.5 21.6
29/03:00am 8.4 -0.9 5.2 80 1.5 N 43 59 23 32 986.6 986.6 21.4
29/02:54am 8.6 0.1 5.2 79 1.5 N 39 59 21 32 986.7 986.7 21.4
29/02:30am 8.7 0.2 5.1 78 1.6 N 39 48 21 26 987.4 987.4 21.4
29/02:24am 8.6 0.1 5.2 79 1.5 N 39 57 21 31 987.8 987.8 21.4
29/02:00am 8.6 0.5 5.2 79 1.5 N 37 52 20 28 988.8 988.8 21.4
29/01:40am 8.6 0.9 5.4 80 1.4 NNW 35 54 19 29 989.4 989.4 21.4
29/01:30am 8.6 0.6 5.5 81 1.4 NNW 37 50 20 27 989.8 989.8 21.4
29/01:00am 8.5 1.2 5.6 82 1.3 N 33 43 18 23 990.6 990.6 21.4
29/12:30am 8.1 0.9 5.7 85 1.1 N 33 46 18 25 991.6 991.6 21.4
29/12:00am 8.7 1.6 5.4 80 1.5 N 32 43 17 23 992.3 992.3 21.2
 
Date/Time
CST
Temp
°C
App
Temp
°C
Dew
Point
°C
Rel
Hum
%
Delta-T
°C
Wind Press
QNH
hPa
Press
MSL
hPa
Rain since
9am
mm
Dir  Spd
km/h
Gust
km/h
Spd
kts
Gust
kts
28/11:30pm 8.8 3.7 6.1 83 1.3 NNW 22 30 12 16 992.6 992.6 21.2
28/11:00pm 9.0 3.2 6.3 83 1.2 NNW 26 32 14 17 992.7 992.7 21.2
28/10:30pm 9.8 3.4 6.9 82 1.4 NNW 30 39 16 21 993.0 993.0 21.2
28/10:00pm 9.8 3.4 6.9 82 1.4 NW 30 39 16 21 993.0 993.0 21.2
28/09:30pm 10.9 3.3 7.6 80 1.6 WNW 37 50 20 27 992.9 992.9 21.2
28/09:20pm 11.2 5.1 8.1 81 1.5 WNW 30 48 16 26 992.7 992.7 21.2
28/09:00pm 10.7 5.0 8.5 86 1.1 WNW 28 37 15 20 992.6 992.6 21.2
28/08:30pm 10.5 6.4 8.6 88 0.9 WNW 20 28 11 15 992.9 992.9 21.2
28/08:10pm 10.1 3.6 8.2 88 0.9 WNW 32 50 17 27 992.8 992.8 21.0
28/08:09pm 10.1 3.6 8.2 88 0.9 WNW 32 50 17 27 992.8 992.8 21.0
28/08:00pm 10.4 3.5 8.7 89 0.8 WNW 35 43 19 23 992.9 992.9 20.8
28/07:51pm 10.4 4.6 8.0 85 1.2 NW 28 43 15 23 993.2 993.2 20.4
28/07:30pm 11.1 5.1 8.8 86 1.2 NW 30 37 16 20 993.0 993.0 19.4
28/07:00pm 12.0 6.6 9.4 84 1.3 NW 28 35 15 19 992.6 992.6 19.0
28/06:30pm 12.5 6.5 10.0 85 1.3 W 32 46 17 25 992.2 992.2 19.0
28/06:00pm 12.6 5.6 10.1 85 1.3 W 37 54 20 29 991.9 991.9 19.0
28/05:54pm 12.6 4.5 10.1 85 1.3 W 43 57 23 31 991.8 991.8 19.0
28/05:35pm 13.0 3.7 10.4 84 1.3 W 50 74 27 40 991.3 991.3 19.0
28/05:30pm 13.5 5.8 10.3 81 1.7 W 41 74 22 40 991.0 991.0 19.0
28/05:28pm 14.3 8.3 12.0 86 1.2 WNW 35 54 19 29 991.2 991.2 19.0
28/05:00pm 14.5 10.4 12.7 89 1.0 WNW 26 35 14 19 989.9 989.9 18.8
28/04:54pm 14.8 10.4 13.0 89 1.0 WNW 28 39 15 21 989.5 989.5 18.8
28/04:42pm 15.2 10.1 13.2 88 1.1 NNE 32 44 17 24 989.1 989.1 18.6
28/04:37pm 15.1 9.0 13.0 87 1.2 NNE 37 48 20 26 988.8 988.8 18.2
28/04:30pm 15.8 9.7 13.1 84 1.5 NE 37 48 20 26 987.8 987.8 16.6
28/04:09pm 15.9 9.7 12.6 81 1.8 NE 37 56 20 30 987.4 987.4 15.8
28/04:00pm 15.8 10.3 12.5 81 1.8 NE 33 46 18 25 987.8 987.8 15.4
28/03:30pm 16.0 8.5 12.0 77 2.2 NE 43 61 23 33 987.6 987.6 13.8
28/03:06pm 16.8 8.5 11.3 70 3.0 NE 46 65 25 35 989.4 989.4 13.6
28/03:00pm 16.8 8.1 11.3 70 3.0 NE 48 63 26 34 990.0 990.0 13.6
28/02:30pm 17.2 8.0 10.8 66 3.5 NE 50 69 27 37 990.7 990.7 13.6
28/02:00pm 16.0 8.2 11.2 73 2.6 NE 43 61 23 33 992.4 992.4 13.6
28/01:57pm 15.9 8.6 11.7 76 2.3 NE 41 56 22 30 992.7 992.7 13.6
28/01:30pm 13.2 7.3 10.6 84 1.4 ENE 32 43 17 23 994.8 994.8 13.6
28/01:04pm 11.7 7.9 9.8 88 1.0 ENE 20 30 11 16 996.7 996.7 13.2
28/01:00pm 11.6 7.4 9.7 88 1.0 ENE 22 35 12 19 997.1 997.1 13.0
28/12:44pm 11.4 7.7 9.3 87 1.1 ENE 19 30 10 16 997.6 997.6 11.8
28/12:30pm 11.3 7.3 9.2 87 1.1 ENE 20 26 11 14 999.0 999.0 10.2
28/12:21pm 11.3 7.3 9.2 87 1.0 NE 20 28 11 15 999.7 999.7 9.2
28/12:00pm 11.5 6.8 9.1 85 1.2 NE 24 32 13 17 1000.7 1000.7 6.0
28/11:57am 11.6 6.9 9.2 85 1.2 NE 24 33 13 18 1000.9 1000.9 5.6
28/11:30am 12.5 6.5 8.8 78 1.9 NNE 30 37 16 20 1000.7 1000.7 1.6
28/11:14am 13.6 6.4 7.8 68 2.9 NNE 35 46 19 25 1000.6 1000.6 0.2
28/11:00am 15.3 7.2 6.8 57 4.2 NE 39 52 21 28 999.1 999.1 0.0
28/10:30am 17.6 7.9 5.9 46 5.7 NE 46 65 25 35 999.7 999.7 0.0
28/10:08am 18.1 9.8 6.0 45 5.9 NE 39 61 21 33 1000.9 1000.9 0.0
28/10:00am 18.2 10.7 6.4 46 5.8 NE 35 50 19 27 1000.8 1000.8 0.0
28/09:30am 17.6 9.3 6.2 47 5.6 NE 39 50 21 27 1002.4 1002.4 0.0
28/09:00am 17.2 8.5 5.8 47 5.6 NE 41 56 22 30 1003.5 1003.5 0.0
28/08:30am 16.0 8.0 5.6 50 5.0 NE 37 48 20 26 1004.4 1004.4 0.0
28/08:00am 15.5 8.1 5.1 50 4.9 NE 33 44 18 24 1005.3 1005.3 0.0
28/07:30am 14.4 8.0 5.0 53 4.4 NE 28 35 15 19 1005.8 1005.8 0.0
28/07:00am 13.1 6.7 5.3 59 3.6 NE 28 35 15 19 1006.1 1006.1 0.0
28/06:30am 11.9 5.5 5.3 64 3.1 NE 28 37 15 20 1006.7 1006.7 0.0
28/06:00am 11.0 5.8 5.7 70 2.5 NE 22 32 12 17 1007.3 1007.3 0.0
28/05:30am 10.7 5.2 6.1 73 2.1 NE 24 30 13 16 1007.6 1007.6 0.0
28/05:00am 10.7 5.3 6.3 74 2.1 NE 24 33 13 18 1007.9 1007.9 0.0
28/04:30am 10.5 5.0 6.1 74 2.0 NE 24 30 13 16 1008.3 1008.3 0.0
28/04:00am 9.8 5.0 5.6 75 1.9 NE 20 24 11 13 1008.7 1008.6 0.0
28/03:30am 9.0 4.6 5.0 76 1.8 NE 17 20 9 11 1009.1 1009.0 0.0
28/03:00am 8.2 4.9 4.8 79 1.5 ENE 11 13 6 7 1009.5 1009.4 0.0
28/02:30am 8.0 4.7 4.6 79 1.5 ENE 11 11 6 6 1010.0 1009.9 0.0
28/02:00am 8.7 6.0 5.8 82 1.3 ENE 9 11 5 6 1010.7 1010.6 0.0
28/01:30am 6.7 3.4 4.5 86 1.0 NE 11 13 6 7 1011.3 1011.2 0.0
28/01:00am 7.0 4.0 4.3 83 1.2 NE 9 11 5 6 1011.9 1011.8 0.0
28/12:30am 7.7 4.3 5.8 88 0.9 NE 13 15 7 8 1012.2 1012.1 0.0
28/12:00am 7.3 3.8 5.4 88 0.8 NE 13 15 7 8 1012.4 1012.4 0.0
 
Date/Time
CST
Temp
°C
App
Temp
°C
Dew
Point
°C
Rel
Hum
%
Delta-T
°C
Wind Press
QNH
hPa
Press
MSL
hPa
Rain since
9am
mm
Dir  Spd
km/h
Gust
km/h
Spd
kts
Gust
kts
27/11:30pm 6.4 3.0 4.1 85 1.0 NNE 11 13 6 7 1012.5 1012.5 0.0
27/11:00pm 8.2 5.9 5.8 85 1.1 ENE 7 9 4 5 1012.6 1012.6 0.0
27/10:30pm 7.6 4.8 5.1 84 1.1 ENE 9 9 5 5 1013.0 1013.0 0.0
27/10:00pm 8.6 6.3 5.9 83 1.2 ENE 7 9 4 5 1013.2 1013.2 0.0
27/09:30pm 8.5 5.8 5.4 81 1.4 NE 9 13 5 7 1013.5 1013.5 0.0
27/09:00pm 8.7 6.6 5.6 81 1.4 E 6 7 3 4 1013.7 1013.7 0.0
27/08:30pm 11.0 8.9 6.7 75 2.0 E 7 9 4 5 1013.9 1013.9 0.0
27/08:00pm 10.6 8.5 6.0 73 2.1 E 6 7 3 4 1014.0 1014.0 0.0
27/07:30pm 11.7 9.7 6.4 70 2.5 ENE 6 7 3 4 1014.1 1014.1 0.0
27/07:00pm 12.3 10.4 6.8 69 2.6 SSE 6 9 3 5 1014.1 1014.1 0.0
27/06:30pm 12.0 9.6 6.9 71 2.4 WSW 9 11 5 6 1014.1 1014.1 0.0
27/06:00pm 13.6 10.9 7.4 66 3.0 WSW 11 13 6 7 1014.2 1014.2 0.0
27/05:30pm 14.8 11.7 7.1 60 3.8 W 13 17 7 9 1014.2 1014.2 0.0
27/05:00pm 15.4 12.1 6.2 54 4.4 W 13 17 7 9 1014.1 1014.1 0.0
27/04:30pm 15.7 11.6 6.4 54 4.5 WSW 17 22 9 12 1014.1 1014.1 0.0
27/04:00pm 16.0 11.9 6.2 52 4.8 W 17 24 9 13 1014.4 1014.4 0.0
27/03:30pm 16.2 11.6 6.3 52 4.8 W 20 30 11 16 1014.3 1014.3 0.0
27/03:00pm 16.2 12.1 7.7 57 4.3 W 19 35 10 19 1014.7 1014.7 0.0
27/02:30pm 16.2 10.7 6.1 51 4.9 W 24 32 13 17 1014.9 1014.9 0.0
27/02:00pm 16.7 12.1 6.5 51 5.0 WNW 20 28 11 15 1015.1 1015.1 0.0
27/01:30pm 15.9 10.9 6.6 54 4.5 WNW 22 30 12 16 1015.3 1015.3 0.0
27/01:00pm 15.1 10.9 5.6 53 4.5 W 17 26 9 14 1015.5 1015.5 0.0
27/12:30pm 15.5 11.2 7.8 60 3.8 W 20 28 11 15 1015.9 1015.9 0.0
27/12:00pm 15.3 10.6 6.1 54 4.4 W 20 28 11 15 1016.0 1016.0 0.0
27/11:30am 14.8 10.4 6.4 57 4.1 W 19 28 10 15 1016.3 1016.3 0.0
27/11:00am 14.7 10.5 5.8 55 4.2 W 17 26 9 14 1016.5 1016.5 0.0
27/10:30am 14.6 10.4 7.6 63 3.5 WNW 19 28 10 15 1016.7 1016.7 0.0
27/10:00am 14.0 9.1 6.8 62 3.5 W 22 28 12 15 1017.0 1017.0 0.0
27/09:30am 13.9 11.3 7.7 66 3.1 WNW 11 17 6 9 1017.1 1017.1 0.0
27/09:00am 12.1 9.8 7.6 74 2.2 NNE 9 13 5 7 1017.0 1017.0 0.0
27/08:30am 10.6 7.8 6.9 78 1.7 NNE 11 17 6 9 1017.1 1017.1 0.0
27/08:00am 9.1 5.7 6.0 81 1.4 NNE 13 15 7 8 1017.0 1017.0 0.0

Other Formats:

Comma delimited format used in spreadsheet applications
http://www.bom.gov.au/fwo/IDS60801/IDS60801.95676.axf

JavaScript Object Notation format (JSON) in row-major order
http://www.bom.gov.au/fwo/IDS60801/IDS60801.95676.json